createdAt,value
2019-06-26T00:00:13.797Z,24.80
2019-06-26T00:02:42.965Z,24.80
2019-06-26T00:05:12.114Z,24.70
2019-06-26T00:07:41.142Z,24.70
2019-06-26T00:10:10.566Z,24.70
2019-06-26T00:12:39.328Z,24.60
2019-06-26T00:15:09.332Z,24.60
2019-06-26T00:17:38.483Z,24.60
2019-06-26T00:20:07.996Z,24.50
2019-06-26T00:22:37.059Z,24.50
2019-06-26T00:25:06.090Z,24.50
2019-06-26T00:27:35.260Z,24.50
2019-06-26T00:30:04.912Z,24.50
2019-06-26T00:32:34.015Z,24.40
2019-06-26T00:35:02.842Z,24.40
2019-06-26T00:37:31.880Z,24.30
2019-06-26T00:40:00.629Z,24.30
2019-06-26T00:42:29.671Z,24.30
2019-06-26T00:44:58.450Z,24.30
2019-06-26T00:47:27.217Z,24.30
2019-06-26T00:49:56.017Z,24.20
2019-06-26T00:52:24.783Z,24.10
2019-06-26T00:54:53.865Z,24.10
2019-06-26T00:57:23.211Z,24.10
2019-06-26T00:59:51.983Z,24.10
2019-06-26T01:02:21.141Z,24.00
2019-06-26T01:04:52.175Z,24.00
2019-06-26T01:07:20.954Z,24.00
2019-06-26T01:09:49.731Z,23.90
2019-06-26T01:12:18.555Z,23.90
2019-06-26T01:14:47.815Z,23.90
2019-06-26T01:17:17.391Z,23.90
2019-06-26T01:19:46.194Z,23.80
2019-06-26T01:22:15.379Z,23.80
2019-06-26T01:24:44.167Z,23.80
2019-06-26T01:27:12.936Z,23.80
2019-06-26T01:29:42.078Z,23.80
2019-06-26T01:32:10.837Z,23.80
2019-06-26T01:34:39.865Z,23.70
2019-06-26T01:37:08.666Z,23.70
2019-06-26T01:39:37.500Z,23.60
2019-06-26T01:42:06.695Z,23.60
2019-06-26T01:44:35.460Z,23.50
2019-06-26T01:47:04.629Z,23.50
2019-06-26T01:49:33.735Z,23.50
2019-06-26T01:52:03.000Z,23.50
2019-06-26T01:54:31.852Z,23.40
2019-06-26T01:57:01.368Z,23.40
2019-06-26T01:59:30.411Z,23.40
2019-06-26T02:01:59.754Z,23.30
2019-06-26T02:04:28.838Z,23.30
2019-06-26T02:06:58.089Z,23.30
2019-06-26T02:09:27.167Z,23.30
2019-06-26T02:11:56.471Z,23.20
2019-06-26T02:14:31.002Z,23.20
2019-06-26T02:16:56.292Z,23.20
2019-06-26T02:19:25.311Z,23.10
2019-06-26T02:21:54.435Z,23.10
2019-06-26T02:24:23.690Z,23.10
2019-06-26T02:26:53.017Z,23.10
2019-06-26T02:29:22.063Z,23.10
2019-06-26T02:31:50.859Z,23.00
2019-06-26T02:34:19.796Z,23.00
2019-06-26T02:36:49.119Z,23.00
2019-06-26T02:39:18.636Z,22.90
2019-06-26T02:41:47.437Z,22.90
2019-06-26T02:44:16.722Z,22.90
2019-06-26T02:46:45.786Z,22.80
2019-06-26T02:49:14.665Z,22.80
2019-06-26T02:51:43.747Z,22.80
2019-06-26T02:54:13.008Z,22.80
2019-06-26T02:56:41.806Z,22.70
2019-06-26T02:59:10.629Z,22.70
2019-06-26T03:01:39.641Z,22.70
2019-06-26T03:04:08.697Z,22.60
2019-06-26T03:06:37.980Z,22.60
2019-06-26T03:09:07.830Z,22.60
2019-06-26T03:11:36.614Z,22.60
2019-06-26T03:14:05.538Z,22.60
2019-06-26T03:16:35.029Z,22.60
2019-06-26T03:19:04.351Z,22.50
2019-06-26T03:21:33.573Z,22.50
2019-06-26T03:24:02.603Z,22.50
2019-06-26T03:26:31.439Z,22.50
2019-06-26T03:29:00.999Z,22.50
2019-06-26T03:31:29.991Z,22.50
2019-06-26T03:33:58.799Z,22.50
2019-06-26T03:36:27.890Z,22.40
2019-06-26T03:38:56.886Z,22.40
2019-06-26T03:41:25.974Z,22.40
2019-06-26T03:43:54.743Z,22.40
2019-06-26T03:46:23.828Z,22.30
2019-06-26T03:48:52.684Z,22.40
2019-06-26T03:51:22.268Z,22.40
2019-06-26T03:53:51.517Z,22.40
2019-06-26T03:56:20.583Z,22.40
2019-06-26T03:58:49.944Z,22.40
2019-06-26T04:01:19.022Z,22.40
2019-06-26T04:03:47.805Z,22.40
2019-06-26T04:06:16.564Z,22.40
2019-06-26T04:08:45.614Z,22.40
2019-06-26T04:11:14.378Z,22.40
2019-06-26T04:13:43.426Z,22.40
2019-06-26T04:16:12.267Z,22.40
2019-06-26T04:18:41.271Z,22.40
2019-06-26T04:21:10.593Z,22.50
2019-06-26T04:23:39.605Z,22.50
2019-06-26T04:26:08.599Z,22.50
2019-06-26T04:28:37.371Z,22.60
2019-06-26T04:31:06.193Z,22.60
2019-06-26T04:33:35.463Z,22.60
2019-06-26T04:36:04.393Z,22.70
2019-06-26T04:38:33.422Z,22.70
2019-06-26T04:41:02.524Z,22.80
2019-06-26T04:43:31.285Z,22.80
2019-06-26T04:46:00.889Z,22.90
2019-06-26T04:48:29.920Z,23.00
2019-06-26T04:50:59.185Z,23.00
2019-06-26T04:53:28.003Z,23.10
2019-06-26T04:55:56.774Z,23.10
2019-06-26T04:58:25.770Z,23.20
2019-06-26T05:00:54.807Z,23.30
2019-06-26T05:03:23.782Z,23.40
2019-06-26T05:05:52.887Z,23.40
2019-06-26T05:08:21.929Z,23.50
2019-06-26T05:10:50.824Z,23.50
2019-06-26T05:13:20.075Z,23.60
2019-06-26T05:15:48.943Z,23.70
2019-06-26T05:18:17.786Z,23.80
2019-06-26T05:20:46.786Z,23.90
2019-06-26T05:23:15.775Z,24.00
2019-06-26T05:25:44.549Z,24.10
2019-06-26T05:28:13.588Z,24.30
2019-06-26T05:30:42.854Z,24.40
2019-06-26T05:33:12.023Z,24.50
2019-06-26T05:35:41.041Z,24.60
2019-06-26T05:38:09.834Z,24.70
2019-06-26T05:40:39.075Z,24.90
2019-06-26T05:43:08.108Z,25.00
2019-06-26T05:45:37.243Z,25.10
2019-06-26T05:48:06.179Z,25.10
2019-06-26T05:50:35.241Z,25.30
2019-06-26T05:53:04.089Z,25.40
2019-06-26T05:55:33.178Z,25.50
2019-06-26T05:58:02.112Z,25.60
2019-06-26T06:00:31.004Z,25.70
2019-06-26T06:03:00.302Z,25.80
2019-06-26T06:05:29.326Z,25.80
2019-06-26T06:07:58.482Z,25.90
2019-06-26T06:10:27.345Z,25.90
2019-06-26T06:12:56.418Z,26.00
2019-06-26T06:15:25.244Z,26.00
2019-06-26T06:17:54.357Z,26.00
2019-06-26T06:20:30.692Z,26.20
2019-06-26T06:22:59.743Z,26.20
2019-06-26T06:25:28.511Z,26.30
2019-06-26T06:27:57.610Z,26.30
2019-06-26T06:30:27.000Z,26.40
2019-06-26T06:32:56.943Z,26.50
2019-06-26T06:35:26.015Z,26.60
2019-06-26T06:37:55.074Z,26.70
2019-06-26T06:40:24.294Z,26.90
2019-06-26T06:42:53.562Z,26.90
2019-06-26T06:45:22.586Z,27.00
2019-06-26T06:47:51.927Z,27.10
2019-06-26T06:50:20.795Z,27.20
2019-06-26T06:52:49.778Z,27.40
2019-06-26T06:55:18.996Z,27.40
2019-06-26T06:57:48.880Z,27.40
2019-06-26T07:00:18.334Z,27.50
2019-06-26T07:02:47.350Z,27.50
2019-06-26T07:05:16.527Z,27.50
2019-06-26T07:07:45.613Z,27.60
2019-06-26T07:10:14.509Z,27.70
2019-06-26T07:12:43.372Z,27.80
2019-06-26T07:15:12.912Z,27.90
2019-06-26T07:17:42.176Z,27.90
2019-06-26T07:20:12.322Z,28.00
2019-06-26T07:22:41.677Z,28.10
2019-06-26T07:25:11.599Z,28.30
2019-06-26T07:27:40.391Z,28.40
2019-06-26T07:30:10.610Z,28.50
2019-06-26T07:32:39.682Z,28.60
2019-06-26T07:35:13.374Z,28.60
2019-06-26T07:37:43.646Z,28.60
2019-06-26T07:40:12.814Z,28.80
2019-06-26T07:42:41.853Z,28.80
2019-06-26T07:45:12.210Z,29.00
2019-06-26T07:47:43.801Z,29.10
2019-06-26T07:50:12.536Z,29.20
2019-06-26T07:52:42.162Z,29.20
2019-06-26T07:55:12.593Z,29.30
2019-06-26T07:57:42.107Z,29.40
2019-06-26T08:00:11.516Z,29.50
2019-06-26T08:02:40.578Z,29.60
2019-06-26T08:05:10.470Z,29.60
2019-06-26T08:07:39.573Z,29.70
2019-06-26T08:10:08.848Z,29.80
2019-06-26T08:12:37.661Z,29.90
2019-06-26T08:15:06.786Z,29.90
2019-06-26T08:17:36.306Z,30.00
2019-06-26T08:20:06.233Z,30.10
2019-06-26T08:22:35.125Z,30.30
2019-06-26T08:25:04.675Z,30.30
2019-06-26T08:27:33.768Z,30.40
2019-06-26T08:30:03.006Z,30.50
2019-06-26T08:32:32.111Z,30.60
2019-06-26T08:35:01.119Z,30.60
2019-06-26T08:37:32.065Z,30.60
2019-06-26T08:40:01.159Z,30.70
2019-06-26T08:42:30.418Z,30.70
2019-06-26T08:44:59.451Z,30.70
2019-06-26T08:47:28.559Z,30.80
2019-06-26T08:49:57.741Z,30.90
2019-06-26T08:52:26.525Z,31.00
2019-06-26T08:54:55.756Z,31.10
2019-06-26T08:57:24.530Z,31.10
2019-06-26T08:59:54.063Z,31.20
2019-06-26T09:02:22.894Z,31.20
2019-06-26T09:04:51.912Z,31.10
2019-06-26T09:07:21.350Z,31.10
2019-06-26T09:09:50.629Z,31.20
2019-06-26T09:12:19.659Z,31.20
2019-06-26T09:14:48.898Z,31.20
2019-06-26T09:17:18.203Z,31.30
2019-06-26T09:19:47.269Z,31.40
2019-06-26T09:22:16.058Z,31.50
2019-06-26T09:25:21.451Z,31.50
2019-06-26T09:27:40.538Z,31.50
2019-06-26T09:30:11.776Z,31.60
2019-06-26T09:32:40.591Z,31.60
2019-06-26T09:35:09.597Z,31.70
2019-06-26T09:37:48.567Z,31.70
2019-06-26T09:40:18.451Z,31.70
2019-06-26T09:42:47.872Z,31.90
2019-06-26T09:45:17.211Z,32.10
2019-06-26T09:47:45.982Z,32.00
2019-06-26T09:50:16.182Z,32.00
2019-06-26T09:52:45.348Z,32.20
2019-06-26T09:55:19.263Z,32.10
2019-06-26T09:57:48.475Z,32.10
2019-06-26T10:00:18.315Z,32.20
2019-06-26T10:02:47.222Z,32.40
2019-06-26T10:05:17.334Z,32.50
2019-06-26T10:07:46.701Z,32.60
2019-06-26T10:10:16.176Z,32.50
2019-06-26T10:12:45.585Z,32.60
2019-06-26T10:15:16.858Z,32.70
2019-06-26T10:17:46.918Z,32.60
2019-06-26T10:20:16.235Z,32.60
2019-06-26T10:22:45.366Z,32.60
2019-06-26T10:25:15.618Z,32.60
2019-06-26T10:27:44.926Z,32.60
2019-06-26T10:30:15.109Z,32.80
2019-06-26T10:32:43.961Z,32.80
2019-06-26T10:35:14.171Z,33.00
2019-06-26T10:37:43.411Z,33.00
2019-06-26T10:40:16.209Z,32.80
2019-06-26T10:42:43.659Z,32.80
2019-06-26T10:45:12.671Z,32.90
2019-06-26T10:47:41.762Z,33.10
2019-06-26T10:50:11.146Z,33.20
2019-06-26T10:52:40.158Z,33.30
2019-06-26T10:55:09.469Z,33.50
2019-06-26T10:57:38.990Z,33.70
2019-06-26T11:00:08.891Z,34.00
2019-06-26T11:02:39.335Z,34.30
2019-06-26T11:05:09.219Z,34.50
2019-06-26T11:07:38.247Z,34.70
2019-06-26T11:10:07.525Z,34.70
2019-06-26T11:12:36.646Z,34.40
2019-06-26T11:15:06.488Z,34.40
2019-06-26T11:17:35.241Z,34.50
2019-06-26T11:20:05.190Z,34.70
2019-06-26T11:22:34.436Z,34.70
2019-06-26T11:25:03.364Z,34.90
2019-06-26T11:27:32.301Z,34.90
2019-06-26T11:30:02.007Z,34.80
2019-06-26T11:32:30.831Z,34.90
2019-06-26T11:35:00.155Z,35.00
2019-06-26T11:37:28.940Z,35.10
2019-06-26T11:39:58.303Z,35.20
2019-06-26T11:42:27.567Z,35.00
2019-06-26T11:44:58.556Z,35.00
2019-06-26T11:47:27.717Z,35.10
2019-06-26T11:50:00.159Z,35.10
2019-06-26T11:52:28.218Z,34.90
2019-06-26T11:55:02.511Z,34.80
2019-06-26T11:57:28.357Z,35.00
2019-06-26T11:59:57.564Z,35.20
2019-06-26T12:02:26.559Z,35.40
2019-06-26T12:04:55.318Z,35.70
2019-06-26T12:07:24.370Z,35.80
2019-06-26T12:09:53.480Z,35.90
2019-06-26T12:12:22.685Z,35.60
2019-06-26T12:14:51.819Z,35.50
2019-06-26T12:17:20.614Z,35.30
2019-06-26T12:19:49.614Z,35.40
2019-06-26T12:22:18.892Z,35.40
2019-06-26T12:24:48.961Z,35.60
2019-06-26T12:27:18.023Z,35.80
2019-06-26T12:29:47.291Z,36.10
2019-06-26T12:32:16.146Z,36.30
2019-06-26T12:34:45.437Z,36.60
2019-06-26T12:37:14.728Z,36.80
2019-06-26T12:39:44.308Z,37.10
2019-06-26T12:42:13.394Z,37.00
2019-06-26T12:44:42.419Z,36.80
2019-06-26T12:47:11.413Z,37.00
2019-06-26T12:49:40.253Z,37.10
2019-06-26T12:52:09.155Z,37.20
2019-06-26T12:54:38.404Z,37.20
2019-06-26T12:57:07.232Z,37.20
2019-06-26T12:59:36.252Z,37.00
2019-06-26T13:02:05.647Z,37.10
2019-06-26T13:04:34.689Z,37.10
2019-06-26T13:07:04.010Z,36.80
2019-06-26T13:09:33.202Z,36.70
2019-06-26T13:12:02.268Z,36.80
2019-06-26T13:14:31.274Z,37.10
2019-06-26T13:17:00.053Z,37.20
2019-06-26T13:19:29.085Z,37.00
2019-06-26T13:21:58.607Z,37.10
2019-06-26T13:24:27.501Z,37.20
2019-06-26T13:26:56.626Z,37.20
2019-06-26T13:29:25.759Z,37.30
2019-06-26T13:31:54.883Z,37.20
2019-06-26T13:34:23.620Z,37.20
2019-06-26T13:36:53.074Z,37.30
2019-06-26T13:39:22.563Z,37.40
2019-06-26T13:41:51.865Z,37.20
2019-06-26T13:44:21.120Z,37.30
2019-06-26T13:46:50.352Z,37.20
2019-06-26T13:49:19.117Z,36.90
2019-06-26T13:51:47.858Z,36.60
2019-06-26T13:54:16.789Z,36.60
2019-06-26T13:56:45.874Z,36.60
2019-06-26T13:59:15.670Z,36.50
2019-06-26T14:01:44.896Z,36.30
2019-06-26T14:04:14.235Z,36.30
2019-06-26T14:06:43.297Z,36.30
2019-06-26T14:09:12.435Z,36.40
2019-06-26T14:11:41.301Z,36.60
2019-06-26T14:14:10.192Z,36.70
2019-06-26T14:16:39.293Z,36.90
2019-06-26T14:19:08.111Z,37.20
2019-06-26T14:21:40.022Z,37.60
2019-06-26T14:24:09.589Z,37.80
2019-06-26T14:26:39.247Z,38.00
2019-06-26T14:29:20.570Z,38.10
2019-06-26T14:31:39.839Z,38.20
2019-06-26T14:34:09.004Z,38.30
2019-06-26T14:36:39.491Z,38.20
2019-06-26T14:39:08.352Z,38.30
2019-06-26T14:41:39.243Z,38.30
2019-06-26T14:44:08.536Z,38.20
2019-06-26T14:46:37.525Z,38.00
2019-06-26T14:49:06.382Z,37.90
2019-06-26T14:51:43.932Z,38.00
2019-06-26T14:54:11.975Z,37.60
2019-06-26T14:56:41.281Z,37.00
2019-06-26T14:59:10.300Z,36.70
2019-06-26T15:01:39.870Z,36.50
2019-06-26T15:04:08.641Z,36.50
2019-06-26T15:06:37.983Z,36.40
2019-06-26T15:09:07.379Z,36.50
2019-06-26T15:11:36.297Z,36.60
2019-06-26T15:14:05.992Z,36.60
2019-06-26T15:16:34.826Z,36.70
2019-06-26T15:19:03.874Z,36.80
2019-06-26T15:21:33.188Z,36.80
2019-06-26T15:24:02.325Z,36.60
2019-06-26T15:26:31.602Z,36.60
2019-06-26T15:29:00.843Z,36.50
2019-06-26T15:31:29.863Z,36.50
2019-06-26T15:33:58.650Z,36.60
2019-06-26T15:36:27.937Z,36.80
2019-06-26T15:38:59.259Z,36.80
2019-06-26T15:41:27.847Z,36.50
2019-06-26T15:43:57.190Z,36.30
2019-06-26T15:46:26.238Z,36.30
2019-06-26T15:48:55.024Z,36.40
2019-06-26T15:51:24.231Z,36.60
2019-06-26T15:53:53.502Z,36.70
2019-06-26T15:56:23.039Z,36.90
2019-06-26T15:58:52.254Z,37.10
2019-06-26T16:01:21.786Z,37.20
2019-06-26T16:03:50.859Z,37.20
2019-06-26T16:06:19.987Z,37.30
2019-06-26T16:08:48.994Z,37.30
2019-06-26T16:11:18.171Z,37.30
2019-06-26T16:13:47.819Z,37.10
2019-06-26T16:16:17.066Z,37.00
2019-06-26T16:18:55.225Z,36.80
2019-06-26T16:21:24.942Z,36.70
2019-06-26T16:23:54.854Z,36.60
2019-06-26T16:26:24.312Z,36.60
2019-06-26T16:28:53.790Z,36.50
2019-06-26T16:31:23.085Z,36.30
2019-06-26T16:33:52.311Z,36.20
2019-06-26T16:36:22.754Z,36.10
2019-06-26T16:38:52.046Z,36.10
2019-06-26T16:41:22.338Z,36.20
2019-06-26T16:43:51.538Z,36.30
2019-06-26T16:46:20.779Z,36.20
2019-06-26T16:48:49.787Z,36.10
2019-06-26T16:51:19.343Z,35.80
2019-06-26T16:53:49.102Z,35.60
2019-06-26T16:56:18.451Z,35.20
2019-06-26T16:58:47.779Z,34.90
2019-06-26T17:01:17.319Z,34.60
2019-06-26T17:03:46.334Z,34.40
2019-06-26T17:06:15.361Z,34.10
2019-06-26T17:08:44.521Z,34.00
2019-06-26T17:11:13.783Z,33.90
2019-06-26T17:13:43.079Z,33.90
2019-06-26T17:16:12.415Z,33.90
2019-06-26T17:18:41.324Z,33.70
2019-06-26T17:21:10.845Z,33.60
2019-06-26T17:23:40.386Z,33.50
2019-06-26T17:26:09.150Z,33.40
2019-06-26T17:28:38.403Z,33.30
2019-06-26T17:31:07.689Z,33.20
2019-06-26T17:33:36.987Z,33.00
2019-06-26T17:36:05.970Z,32.70
2019-06-26T17:38:34.884Z,32.50
2019-06-26T17:41:03.714Z,32.30
2019-06-26T17:43:33.027Z,32.00
2019-06-26T17:46:01.771Z,31.90
2019-06-26T17:48:30.795Z,31.70
2019-06-26T17:50:59.656Z,31.60
2019-06-26T17:53:28.502Z,31.40
2019-06-26T17:55:57.524Z,31.20
2019-06-26T17:58:26.532Z,31.10
2019-06-26T18:00:55.309Z,30.90
2019-06-26T18:03:24.154Z,30.80
2019-06-26T18:05:53.662Z,30.60
2019-06-26T18:08:22.751Z,30.50
2019-06-26T18:10:52.163Z,30.30
2019-06-26T18:13:21.269Z,30.10
2019-06-26T18:15:50.114Z,30.10
2019-06-26T18:18:19.530Z,29.90
2019-06-26T18:20:49.139Z,29.90
2019-06-26T18:23:17.873Z,29.70
2019-06-26T18:25:53.825Z,29.70
2019-06-26T18:28:17.580Z,29.60
2019-06-26T18:30:47.077Z,29.40
2019-06-26T18:33:16.144Z,29.30
2019-06-26T18:35:44.991Z,29.10
2019-06-26T18:38:13.741Z,29.00
2019-06-26T18:40:43.113Z,28.90
2019-06-26T18:43:14.994Z,28.80
2019-06-26T18:45:42.469Z,28.70
2019-06-26T18:48:11.762Z,28.60
2019-06-26T18:50:41.040Z,28.50
2019-06-26T18:53:10.278Z,28.40
2019-06-26T18:55:39.286Z,28.40
2019-06-26T18:58:08.287Z,28.50
2019-06-26T19:00:37.584Z,28.50
2019-06-26T19:03:06.654Z,28.40
2019-06-26T19:05:35.449Z,28.30
2019-06-26T19:08:04.216Z,28.20
2019-06-26T19:10:33.046Z,28.20
2019-06-26T19:13:02.103Z,28.10
2019-06-26T19:15:31.236Z,28.00
2019-06-26T19:17:59.987Z,27.90
2019-06-26T19:20:29.035Z,27.90
2019-06-26T19:22:58.438Z,27.80
2019-06-26T19:25:27.723Z,27.70
2019-06-26T19:27:57.254Z,27.60
2019-06-26T19:30:26.069Z,27.60
2019-06-26T19:32:54.892Z,27.50
2019-06-26T19:35:23.740Z,27.50
2019-06-26T19:37:52.825Z,27.40
2019-06-26T19:40:24.105Z,27.40
2019-06-26T19:42:53.946Z,27.30
2019-06-26T19:45:24.234Z,27.30
2019-06-26T19:47:53.196Z,27.30
2019-06-26T19:50:23.611Z,27.10
2019-06-26T19:52:54.222Z,27.00
2019-06-26T19:55:23.703Z,26.90
2019-06-26T19:57:52.702Z,26.80
2019-06-26T20:00:22.035Z,26.70
2019-06-26T20:02:50.784Z,26.60
2019-06-26T20:05:19.629Z,26.50
2019-06-26T20:07:48.370Z,26.40
2019-06-26T20:10:18.090Z,26.30
2019-06-26T20:12:47.236Z,26.20
2019-06-26T20:15:16.252Z,26.20
2019-06-26T20:17:45.594Z,26.10
2019-06-26T20:20:14.856Z,26.10
2019-06-26T20:22:44.069Z,26.00
2019-06-26T20:25:13.655Z,25.90
2019-06-26T20:27:42.497Z,25.90
2019-06-26T20:30:12.821Z,25.80
2019-06-26T20:32:41.822Z,25.70
2019-06-26T20:35:11.158Z,25.60
2019-06-26T20:37:40.395Z,25.60
2019-06-26T20:40:09.479Z,25.50
2019-06-26T20:42:38.581Z,25.40
2019-06-26T20:45:09.337Z,25.30
2019-06-26T20:47:38.338Z,25.20
2019-06-26T20:50:07.681Z,25.00
2019-06-26T20:52:36.421Z,25.00
2019-06-26T20:55:05.339Z,24.90
2019-06-26T20:57:34.185Z,24.80
2019-06-26T21:00:03.294Z,24.70
2019-06-26T21:02:32.623Z,24.60
2019-06-26T21:05:01.449Z,24.60
2019-06-26T21:07:30.520Z,24.50
2019-06-26T21:10:00.086Z,24.50
2019-06-26T21:12:29.137Z,24.40
2019-06-26T21:14:58.206Z,24.30
2019-06-26T21:17:27.222Z,24.30
2019-06-26T21:19:56.909Z,24.10
2019-06-26T21:22:26.197Z,24.00
2019-06-26T21:24:55.198Z,23.90
2019-06-26T21:27:24.254Z,23.80
2019-06-26T21:29:53.023Z,23.70
2019-06-26T21:32:22.283Z,23.70
2019-06-26T21:34:51.286Z,23.70
2019-06-26T21:37:20.819Z,23.60
2019-06-26T21:39:50.087Z,23.50
2019-06-26T21:42:19.223Z,23.40
2019-06-26T21:44:48.238Z,23.20
2019-06-26T21:47:17.314Z,23.10
2019-06-26T21:50:05.941Z,23.00
2019-06-26T21:52:35.280Z,22.90
2019-06-26T21:55:04.203Z,22.90
2019-06-26T21:57:33.530Z,22.80
2019-06-26T22:00:02.542Z,22.80
2019-06-26T22:02:32.010Z,22.80
2019-06-26T22:05:01.787Z,22.70
2019-06-26T22:07:31.051Z,22.70
2019-06-26T22:10:00.087Z,22.60
2019-06-26T22:12:29.491Z,22.60
2019-06-26T22:14:58.457Z,22.60
2019-06-26T22:17:27.594Z,22.60
2019-06-26T22:19:56.431Z,22.60
2019-06-26T22:22:25.607Z,22.60
2019-06-26T22:24:54.738Z,22.50
2019-06-26T22:27:23.831Z,22.40
2019-06-26T22:29:52.612Z,22.30
2019-06-26T22:32:21.518Z,22.20
2019-06-26T22:34:50.864Z,22.20
2019-06-26T22:37:19.614Z,22.10
2019-06-26T22:39:48.878Z,22.10
2019-06-26T22:42:18.135Z,22.10
2019-06-26T22:44:47.123Z,21.90
2019-06-26T22:47:15.873Z,21.80
2019-06-26T22:49:45.178Z,21.80
2019-06-26T22:52:14.423Z,21.70
2019-06-26T22:54:43.458Z,21.70
2019-06-26T22:57:12.190Z,21.60
2019-06-26T22:59:41.555Z,21.50
2019-06-26T23:02:10.309Z,21.40
2019-06-26T23:04:39.391Z,21.30
2019-06-26T23:07:08.159Z,21.20
2019-06-26T23:09:37.436Z,21.10
2019-06-26T23:12:06.419Z,21.00
2019-06-26T23:14:35.273Z,21.00
2019-06-26T23:17:04.726Z,20.90
2019-06-26T23:19:33.728Z,20.80
2019-06-26T23:22:02.745Z,20.70
2019-06-26T23:24:31.737Z,20.70
2019-06-26T23:27:00.697Z,20.60
2019-06-26T23:29:29.523Z,20.60
2019-06-26T23:31:58.581Z,20.50
2019-06-26T23:34:27.602Z,20.50
2019-06-26T23:36:56.352Z,20.40
2019-06-26T23:39:25.114Z,20.30
2019-06-26T23:41:54.091Z,20.30
2019-06-26T23:44:23.136Z,20.20
2019-06-26T23:46:52.262Z,20.00
2019-06-26T23:49:21.351Z,19.90
2019-06-26T23:51:50.650Z,19.80
2019-06-26T23:54:19.986Z,19.70
2019-06-26T23:56:48.747Z,19.70
2019-06-26T23:59:17.744Z,19.60
